createdAt,value
2022-12-19T00:01:38.115Z,-1.54
2022-12-19T00:04:08.631Z,-1.58
2022-12-19T00:06:37.484Z,-1.55
2022-12-19T00:09:05.379Z,-1.55
2022-12-19T00:11:32.818Z,-1.52
2022-12-19T00:14:00.177Z,-1.48
2022-12-19T00:16:29.052Z,-1.30
2022-12-19T00:18:57.989Z,-1.27
2022-12-19T00:21:26.955Z,-1.34
2022-12-19T00:23:54.236Z,-1.25
2022-12-19T00:26:34.331Z,-1.27
2022-12-19T00:29:03.524Z,-1.30
2022-12-19T00:31:32.222Z,-1.27
2022-12-19T00:33:59.742Z,-1.36
2022-12-19T00:36:28.805Z,-1.32
2022-12-19T00:38:57.558Z,-1.38
2022-12-19T00:41:32.412Z,-1.45
2022-12-19T00:44:03.659Z,-1.51
2022-12-19T00:46:32.875Z,-1.58
2022-12-19T00:49:00.466Z,-1.59
2022-12-19T00:51:29.246Z,-1.70
2022-12-19T00:53:56.899Z,-1.67
2022-12-19T00:56:26.558Z,-1.65
2022-12-19T00:58:54.387Z,-1.66
2022-12-19T01:01:23.743Z,-1.62
2022-12-19T01:04:26.496Z,-1.63
2022-12-19T01:06:38.984Z,-1.73
2022-12-19T01:09:06.276Z,-1.77
2022-12-19T01:11:52.092Z,-1.69
2022-12-19T01:14:23.015Z,-1.73
2022-12-19T01:16:51.551Z,-1.73
2022-12-19T01:19:20.044Z,-1.73
2022-12-19T01:21:47.423Z,-1.75
2022-12-19T01:24:15.825Z,-1.69
2022-12-19T01:26:49.811Z,-1.75
2022-12-19T01:29:18.464Z,-1.76
2022-12-19T01:31:45.889Z,-1.65
2022-12-19T01:34:13.790Z,-1.51
2022-12-19T01:36:41.171Z,-1.63
2022-12-19T01:39:08.662Z,-1.60
2022-12-19T01:41:35.962Z,-1.70
2022-12-19T01:44:05.070Z,-1.66
2022-12-19T01:46:46.483Z,-1.69
2022-12-19T01:49:36.805Z,-1.69
2022-12-19T01:52:06.458Z,-1.76
2022-12-19T01:54:36.468Z,-1.70
2022-12-19T01:57:04.752Z,-1.72
2022-12-19T01:59:39.008Z,-1.67
2022-12-19T02:02:20.138Z,-1.93
2022-12-19T02:04:47.859Z,-1.98
2022-12-19T02:07:16.605Z,-2.01
2022-12-19T02:09:45.344Z,-1.83
2022-12-19T02:12:13.063Z,-1.93
2022-12-19T02:14:40.953Z,-1.94
2022-12-19T02:17:37.453Z,-1.86
2022-12-19T02:20:30.086Z,-1.79
2022-12-19T02:23:15.527Z,-1.83
2022-12-19T02:25:52.001Z,-1.96
2022-12-19T02:29:06.460Z,-1.73
2022-12-19T02:31:36.898Z,-1.75
2022-12-19T02:34:07.152Z,-1.75
2022-12-19T02:37:08.915Z,-1.94
2022-12-19T02:39:55.380Z,-1.96
2022-12-19T02:42:36.459Z,-2.28
2022-12-19T02:45:05.781Z,-2.13
2022-12-19T02:47:33.280Z,-2.13
2022-12-19T02:50:02.922Z,-2.23
2022-12-19T02:52:30.502Z,-2.37
2022-12-19T02:55:03.754Z,-2.34
2022-12-19T02:57:49.395Z,-2.37
2022-12-19T03:00:19.251Z,-2.41
2022-12-19T03:03:00.559Z,-2.41
2022-12-19T03:05:33.953Z,-2.31
2022-12-19T03:08:25.461Z,-2.37
2022-12-19T03:11:07.103Z,-2.58
2022-12-19T03:13:39.428Z,-2.62
2022-12-19T03:16:08.970Z,-2.59
2022-12-19T03:18:36.408Z,-2.83
2022-12-19T03:21:09.084Z,-2.54
2022-12-19T03:23:36.401Z,-2.62
2022-12-19T03:26:06.787Z,-2.51
2022-12-19T03:28:42.135Z,-2.48
2022-12-19T03:31:10.037Z,-2.61
2022-12-19T03:33:37.423Z,-2.69
2022-12-19T03:36:06.348Z,-2.66
2022-12-19T03:38:34.790Z,-2.61
2022-12-19T03:41:02.726Z,-2.64
2022-12-19T03:43:29.956Z,-2.61
2022-12-19T03:45:58.247Z,-2.54
2022-12-19T03:48:39.515Z,-2.49
2022-12-19T03:51:28.036Z,-2.51
2022-12-19T03:54:01.353Z,-2.58
2022-12-19T03:56:42.469Z,-2.56
2022-12-19T03:59:28.110Z,-2.54
2022-12-19T04:01:55.827Z,-2.54
2022-12-19T04:04:25.346Z,-2.45
2022-12-19T04:06:52.681Z,-2.41
2022-12-19T04:09:22.693Z,-2.41
2022-12-19T04:11:53.310Z,-2.55
2022-12-19T04:14:30.595Z,-2.58
2022-12-19T04:17:23.069Z,-2.56
2022-12-19T04:20:09.278Z,-2.80
2022-12-19T04:22:59.572Z,-2.82
2022-12-19T04:25:35.713Z,-2.87
2022-12-19T04:28:36.978Z,-3.10
2022-12-19T04:31:05.003Z,-3.17
2022-12-19T04:33:32.302Z,-3.07
2022-12-19T04:36:00.155Z,-3.17
2022-12-19T04:38:27.449Z,-3.04
2022-12-19T04:40:54.769Z,-3.18
2022-12-19T04:43:22.054Z,-3.11
2022-12-19T04:45:54.009Z,-3.00
2022-12-19T04:48:24.686Z,-3.06
2022-12-19T04:50:51.922Z,-3.16
2022-12-19T04:53:19.190Z,-3.23
2022-12-19T04:55:46.521Z,-3.38
2022-12-19T04:58:18.962Z,-3.24
2022-12-19T05:00:48.894Z,-3.18
2022-12-19T05:03:16.180Z,-3.21
2022-12-19T05:05:43.658Z,-3.14
2022-12-19T05:08:11.761Z,-3.03
2022-12-19T05:10:39.423Z,-2.96
2022-12-19T05:13:07.374Z,-3.10
2022-12-19T05:15:34.892Z,-3.04
2022-12-19T05:18:02.185Z,-3.00
2022-12-19T05:20:29.535Z,-2.87
2022-12-19T05:22:56.792Z,-2.96
2022-12-19T05:25:24.185Z,-3.07
2022-12-19T05:27:51.457Z,-3.06
2022-12-19T05:30:18.747Z,-2.90
2022-12-19T05:32:46.089Z,-2.92
2022-12-19T05:35:13.537Z,-3.01
2022-12-19T05:37:40.771Z,-3.04
2022-12-19T05:40:08.641Z,-3.14
2022-12-19T05:42:35.858Z,-3.04
2022-12-19T05:45:03.216Z,-3.01
2022-12-19T05:47:30.463Z,-3.17
2022-12-19T05:49:57.868Z,-3.16
2022-12-19T05:52:25.205Z,-3.16
2022-12-19T05:54:52.731Z,-3.04
2022-12-19T05:57:20.006Z,-2.97
2022-12-19T05:59:47.320Z,-3.08
2022-12-19T06:02:14.793Z,-3.04
2022-12-19T06:04:42.221Z,-3.01
2022-12-19T06:07:09.501Z,-2.93
2022-12-19T06:09:37.337Z,-3.08
2022-12-19T06:12:04.939Z,-3.07
2022-12-19T06:14:32.344Z,-3.01
2022-12-19T06:16:59.771Z,-3.03
2022-12-19T06:19:27.336Z,-2.95
2022-12-19T06:21:54.658Z,-2.97
2022-12-19T06:24:24.915Z,-2.96
2022-12-19T06:26:52.431Z,-2.89
2022-12-19T06:29:19.798Z,-2.86
2022-12-19T06:31:47.253Z,-2.79
2022-12-19T06:34:32.945Z,-2.70
2022-12-19T06:37:07.806Z,-2.69
2022-12-19T06:39:35.968Z,-2.68
2022-12-19T06:42:22.464Z,-2.61
2022-12-19T06:44:54.351Z,-2.64
2022-12-19T06:47:23.561Z,-2.59
2022-12-19T06:49:53.781Z,-2.56
2022-12-19T06:52:21.715Z,-2.56
2022-12-19T06:54:49.057Z,-2.66
2022-12-19T06:57:16.472Z,-2.65
2022-12-19T06:59:50.772Z,-2.59
2022-12-19T07:02:46.872Z,-2.44
2022-12-19T07:05:20.433Z,-2.42
2022-12-19T07:07:50.503Z,-2.38
2022-12-19T07:10:20.615Z,-2.33
2022-12-19T07:12:48.621Z,-2.25
2022-12-19T07:15:22.395Z,-2.34
2022-12-19T07:17:51.466Z,-2.38
2022-12-19T07:20:22.660Z,-2.37
2022-12-19T07:22:54.518Z,-2.34
2022-12-19T07:25:35.246Z,-2.35
2022-12-19T07:28:03.749Z,-2.40
2022-12-19T07:30:31.458Z,-2.54
2022-12-19T07:32:59.065Z,-2.35
2022-12-19T07:35:30.082Z,-2.28
2022-12-19T07:38:04.894Z,-2.28
2022-12-19T07:40:36.364Z,-2.30
2022-12-19T07:43:09.652Z,-2.38
2022-12-19T07:45:38.804Z,-2.41
2022-12-19T07:48:06.627Z,-2.31
2022-12-19T07:50:34.405Z,-2.38
2022-12-19T07:53:02.733Z,-2.28
2022-12-19T07:55:30.933Z,-2.18
2022-12-19T07:57:59.025Z,-2.17
2022-12-19T08:00:30.640Z,-2.13
2022-12-19T08:02:59.682Z,-2.08
2022-12-19T08:05:28.309Z,-2.01
2022-12-19T08:07:56.365Z,-1.98
2022-12-19T08:10:24.587Z,-2.03
2022-12-19T08:12:52.711Z,-2.10
2022-12-19T08:15:20.583Z,-1.96
2022-12-19T08:17:48.193Z,-2.01
2022-12-19T08:20:15.710Z,-1.87
2022-12-19T08:22:43.245Z,-1.76
2022-12-19T08:25:12.442Z,-1.82
2022-12-19T08:27:43.157Z,-1.82
2022-12-19T08:30:13.490Z,-1.96
2022-12-19T08:32:41.270Z,-1.89
2022-12-19T08:35:09.340Z,-1.87
2022-12-19T08:37:37.746Z,-1.82
2022-12-19T08:40:09.669Z,-1.91
2022-12-19T08:42:37.439Z,-1.89
2022-12-19T08:45:05.886Z,-1.86
2022-12-19T08:47:36.814Z,-1.72
2022-12-19T08:50:05.403Z,-1.73
2022-12-19T08:52:33.582Z,-1.76
2022-12-19T08:55:01.728Z,-1.73
2022-12-19T08:57:29.580Z,-1.86
2022-12-19T08:59:57.245Z,-1.80
2022-12-19T09:02:27.092Z,-1.77
2022-12-19T09:06:05.373Z,-1.69
2022-12-19T09:07:52.179Z,-1.56
2022-12-19T09:10:20.796Z,-1.54
2022-12-19T09:12:54.402Z,-1.76
2022-12-19T09:15:29.504Z,-1.72
2022-12-19T09:17:57.517Z,-1.63
2022-12-19T09:20:25.257Z,-1.63
2022-12-19T09:22:53.536Z,-1.52
2022-12-19T09:25:23.235Z,-1.59
2022-12-19T09:28:25.927Z,-1.58
2022-12-19T09:30:38.919Z,-1.76
2022-12-19T09:33:07.190Z,-1.73
2022-12-19T09:35:34.663Z,-1.67
2022-12-19T09:38:03.749Z,-1.59
2022-12-19T09:40:49.832Z,-1.59
2022-12-19T09:43:25.271Z,-1.52
2022-12-19T09:46:01.360Z,-1.46
2022-12-19T09:48:28.936Z,-1.44
2022-12-19T09:51:17.496Z,-1.56
2022-12-19T09:54:06.282Z,-1.55
2022-12-19T09:56:37.762Z,-1.63
2022-12-19T09:59:47.725Z,-1.60
2022-12-19T10:02:37.856Z,-1.52
2022-12-19T10:05:21.104Z,-1.51
2022-12-19T10:08:10.488Z,-1.56
2022-12-19T10:12:36.160Z,-1.42
2022-12-19T10:14:30.612Z,-1.35
2022-12-19T10:17:24.601Z,-1.27
2022-12-19T10:20:15.301Z,-1.24
2022-12-19T10:22:52.252Z,-1.11
2022-12-19T10:26:08.285Z,-1.08
2022-12-19T10:28:51.876Z,-1.03
2022-12-19T10:31:22.990Z,-1.18
2022-12-19T10:34:01.762Z,-1.22
2022-12-19T10:37:04.672Z,-1.31
2022-12-19T10:39:28.090Z,-1.11
2022-12-19T10:41:57.595Z,-1.07
2022-12-19T10:44:27.132Z,-1.03
2022-12-19T10:46:54.786Z,-0.90
2022-12-19T10:49:25.919Z,-0.88
2022-12-19T10:51:57.263Z,-0.94
2022-12-19T10:54:47.339Z,-0.93
2022-12-19T10:57:30.312Z,-1.04
2022-12-19T11:00:04.265Z,-1.00
2022-12-19T11:03:18.845Z,-0.97
2022-12-19T11:05:57.773Z,-1.01
2022-12-19T11:08:35.229Z,-0.94
2022-12-19T11:12:39.650Z,-0.96
2022-12-19T11:19:39.694Z,-0.91
2022-12-19T11:21:09.496Z,-1.07
2022-12-19T11:29:32.284Z,-0.93
2022-12-19T11:29:35.214Z,-0.81
2022-12-19T11:30:45.321Z,-0.87
2022-12-19T11:30:46.938Z,-0.81
2022-12-19T11:33:57.747Z,-0.86
2022-12-19T11:36:42.689Z,-0.91
2022-12-19T11:39:38.601Z,-0.84
2022-12-19T11:42:15.874Z,-0.72
2022-12-19T11:45:00.488Z,-0.65
2022-12-19T11:47:54.563Z,-0.73
2022-12-19T11:50:25.935Z,-0.77
2022-12-19T11:53:18.326Z,-0.94
2022-12-19T11:55:58.679Z,-1.03
2022-12-19T11:58:28.857Z,-0.97
2022-12-19T12:01:25.824Z,-0.94
2022-12-19T12:04:18.167Z,-0.77
2022-12-19T12:06:53.434Z,-0.88
2022-12-19T12:12:44.622Z,-0.90
2022-12-19T12:20:25.257Z,-0.80
2022-12-19T12:26:23.104Z,-0.69
2022-12-19T12:31:05.469Z,-0.77
2022-12-19T12:31:19.293Z,-0.80
2022-12-19T12:31:40.798Z,-0.87
2022-12-19T12:31:43.409Z,-0.83
2022-12-19T12:31:50.265Z,-0.94
2022-12-19T12:35:51.084Z,-0.87
2022-12-19T12:39:29.719Z,-0.80
2022-12-19T12:42:40.431Z,-0.69
2022-12-19T12:45:42.060Z,-0.76
2022-12-19T12:48:27.244Z,-0.63
2022-12-19T12:50:59.404Z,-0.60
2022-12-19T12:53:34.579Z,-0.65
2022-12-19T12:56:02.371Z,-0.69
2022-12-19T12:58:48.731Z,-0.69
2022-12-19T13:01:29.727Z,-0.53
2022-12-19T13:04:06.901Z,-0.40
2022-12-19T13:06:38.639Z,-0.40
2022-12-19T13:09:08.960Z,-0.39
2022-12-19T13:11:59.632Z,-0.56
2022-12-19T13:14:37.468Z,-0.55
2022-12-19T13:17:08.953Z,-0.66
2022-12-19T13:19:37.649Z,-0.72
2022-12-19T13:22:07.755Z,-0.77
2022-12-19T13:24:54.288Z,-0.88
2022-12-19T13:27:21.895Z,-0.80
2022-12-19T13:30:01.510Z,-0.70
2022-12-19T13:32:41.340Z,-0.66
2022-12-19T13:36:12.101Z,-0.70
2022-12-19T13:39:55.327Z,-0.76
2022-12-19T13:41:44.614Z,-0.76
2022-12-19T13:44:12.429Z,-0.73
2022-12-19T13:46:42.713Z,-0.66
2022-12-19T13:49:10.204Z,-0.52
2022-12-19T13:51:52.055Z,-0.38
2022-12-19T13:54:29.529Z,-0.60
2022-12-19T13:57:03.311Z,-0.50
2022-12-19T13:59:38.163Z,-0.56
2022-12-19T14:02:24.830Z,-0.49
2022-12-19T14:04:52.424Z,-0.46
2022-12-19T14:07:39.661Z,-0.52
2022-12-19T14:11:33.951Z,-0.40
2022-12-19T14:13:44.671Z,-0.49
2022-12-19T14:16:16.601Z,-0.43
2022-12-19T14:18:48.598Z,-0.33
2022-12-19T14:22:07.899Z,-0.40
2022-12-19T14:24:10.430Z,-0.45
2022-12-19T14:28:19.924Z,-0.29
2022-12-19T14:29:45.568Z,-0.32
2022-12-19T14:33:39.618Z,-0.25
2022-12-19T14:36:07.678Z,-0.23
2022-12-19T14:39:25.535Z,-0.28
2022-12-19T14:41:09.024Z,-0.35
2022-12-19T14:43:56.641Z,-0.30
2022-12-19T14:53:52.266Z,-0.43
2022-12-19T14:54:13.812Z,-0.43
2022-12-19T14:54:28.467Z,-0.39
2022-12-19T14:56:16.609Z,-0.43
2022-12-19T14:58:54.884Z,-0.29
2022-12-19T15:01:24.995Z,-0.32
2022-12-19T15:04:50.397Z,-0.42
2022-12-19T15:07:09.186Z,-0.39
2022-12-19T15:11:06.817Z,-0.28
2022-12-19T15:14:57.584Z,-0.25
2022-12-19T15:16:27.303Z,-0.38
2022-12-19T15:18:59.186Z,-0.46
2022-12-19T15:21:26.819Z,-0.38
2022-12-19T15:23:54.156Z,-0.35
2022-12-19T15:26:29.505Z,-0.32
2022-12-19T15:28:57.349Z,-0.28
2022-12-19T15:31:35.144Z,-0.25
2022-12-19T15:34:34.367Z,-0.39
2022-12-19T15:37:00.884Z,-0.50
2022-12-19T15:39:30.064Z,-0.50
2022-12-19T15:41:58.764Z,-0.43
2022-12-19T15:44:39.981Z,-0.43
2022-12-19T15:47:15.914Z,-0.32
2022-12-19T15:49:43.579Z,-0.36
2022-12-19T15:52:17.930Z,-0.49
2022-12-19T15:54:50.187Z,-0.42
2022-12-19T15:57:33.678Z,-0.49
2022-12-19T16:00:12.967Z,-0.46
2022-12-19T16:03:21.140Z,-0.45
2022-12-19T16:05:29.548Z,-0.39
2022-12-19T16:07:58.905Z,-0.33
2022-12-19T16:10:26.597Z,-0.36
2022-12-19T16:12:55.659Z,-0.38
2022-12-19T16:15:30.365Z,-0.33
2022-12-19T16:17:58.687Z,-0.33
2022-12-19T16:20:31.217Z,-0.26
2022-12-19T16:22:58.782Z,-0.30
2022-12-19T16:25:33.822Z,-0.25
2022-12-19T16:28:01.321Z,-0.23
2022-12-19T16:30:33.944Z,-0.36
2022-12-19T16:33:01.532Z,-0.25
2022-12-19T16:36:02.287Z,-0.25
2022-12-19T16:38:17.309Z,-0.40
2022-12-19T16:40:44.882Z,-0.30
2022-12-19T16:43:28.096Z,-0.15
2022-12-19T16:46:00.620Z,-0.21
2022-12-19T16:48:30.051Z,-0.17
2022-12-19T16:51:00.498Z,-0.17
2022-12-19T16:53:27.889Z,-0.23
2022-12-19T16:55:55.801Z,-0.19
2022-12-19T16:58:25.260Z,-0.17
2022-12-19T17:00:53.125Z,-0.33
2022-12-19T17:03:41.061Z,-0.36
2022-12-19T17:06:13.013Z,-0.42
2022-12-19T17:08:40.530Z,-0.46
2022-12-19T17:11:16.152Z,-0.30
2022-12-19T17:13:44.157Z,-0.28
2022-12-19T17:16:12.154Z,-0.18
2022-12-19T17:18:40.537Z,-0.22
2022-12-19T17:21:09.423Z,-0.21
2022-12-19T17:23:36.791Z,-0.28
2022-12-19T17:26:04.105Z,-0.28
2022-12-19T17:28:31.487Z,-0.42
2022-12-19T17:31:00.362Z,-0.46
2022-12-19T17:33:33.426Z,-0.48
2022-12-19T17:36:01.898Z,-0.43
2022-12-19T17:38:29.173Z,-0.48
2022-12-19T17:40:56.517Z,-0.52
2022-12-19T17:43:23.846Z,-0.60
2022-12-19T17:45:51.276Z,-0.57
2022-12-19T17:48:31.588Z,-0.45
2022-12-19T17:50:59.403Z,-0.49
2022-12-19T17:53:26.818Z,-0.52
2022-12-19T17:55:54.208Z,-0.43
2022-12-19T17:58:21.965Z,-0.38
2022-12-19T18:00:49.571Z,-0.52
2022-12-19T18:03:25.051Z,-0.48
2022-12-19T18:05:53.980Z,-0.59
2022-12-19T18:08:26.814Z,-0.56
2022-12-19T18:10:56.620Z,-0.57
2022-12-19T18:13:24.868Z,-0.59
2022-12-19T18:15:53.111Z,-0.55
2022-12-19T18:18:20.915Z,-0.70
2022-12-19T18:20:48.244Z,-0.73
2022-12-19T18:23:20.725Z,-0.67
2022-12-19T18:25:48.233Z,-0.57
2022-12-19T18:28:16.161Z,-0.65
2022-12-19T18:30:44.229Z,-0.53
2022-12-19T18:33:17.875Z,-0.60
2022-12-19T18:35:47.624Z,-0.59
2022-12-19T18:38:19.713Z,-0.66
2022-12-19T18:40:47.355Z,-0.55
2022-12-19T18:43:15.557Z,-0.46
2022-12-19T18:45:44.648Z,-0.48
2022-12-19T18:48:37.057Z,-0.59
2022-12-19T18:51:04.745Z,-0.49
2022-12-19T18:53:36.344Z,-0.57
2022-12-19T18:56:05.292Z,-0.53
2022-12-19T18:58:32.730Z,-0.56
2022-12-19T19:01:00.670Z,-0.49
2022-12-19T19:03:32.934Z,-0.46
2022-12-19T19:06:00.430Z,-0.42
2022-12-19T19:08:29.076Z,-0.39
2022-12-19T19:11:06.360Z,-0.59
2022-12-19T19:13:33.909Z,-0.63
2022-12-19T19:16:02.737Z,-0.52
2022-12-19T19:18:40.228Z,-0.55
2022-12-19T19:21:08.348Z,-0.57
2022-12-19T19:23:40.830Z,-0.52
2022-12-19T19:26:08.266Z,-0.43
2022-12-19T19:28:38.825Z,-0.45
2022-12-19T19:31:07.293Z,-0.49
2022-12-19T19:33:36.486Z,-0.59
2022-12-19T19:36:11.623Z,-0.59
2022-12-19T19:38:40.392Z,-0.66
2022-12-19T19:41:07.639Z,-0.65
2022-12-19T19:43:35.570Z,-0.59
2022-12-19T19:46:03.184Z,-0.69
2022-12-19T19:48:31.059Z,-0.72
2022-12-19T19:50:58.939Z,-0.76
2022-12-19T19:53:26.306Z,-0.74
2022-12-19T19:56:00.896Z,-0.79
2022-12-19T19:58:28.923Z,-0.77
2022-12-19T20:00:56.944Z,-0.74
2022-12-19T20:03:24.805Z,-0.76
2022-12-19T20:06:01.764Z,-0.63
2022-12-19T20:08:35.205Z,-0.70
2022-12-19T20:11:06.480Z,-0.77
2022-12-19T20:13:33.927Z,-0.69
2022-12-19T20:16:06.582Z,-0.63
2022-12-19T20:18:34.474Z,-0.67
2022-12-19T20:21:02.015Z,-0.62
2022-12-19T20:23:29.394Z,-0.74
2022-12-19T20:26:01.615Z,-0.77
2022-12-19T20:28:30.089Z,-0.80
2022-12-19T20:30:57.548Z,-0.87
2022-12-19T20:33:24.962Z,-0.74
2022-12-19T20:35:59.125Z,-0.80
2022-12-19T20:38:26.523Z,-0.87
2022-12-19T20:40:56.065Z,-1.01
2022-12-19T20:43:24.073Z,-0.97
2022-12-19T20:45:51.416Z,-1.11
2022-12-19T20:48:18.796Z,-1.05
2022-12-19T20:50:46.052Z,-1.21
2022-12-19T20:53:13.412Z,-1.18
2022-12-19T20:55:40.717Z,-1.18
2022-12-19T20:58:08.144Z,-1.22
2022-12-19T21:00:35.430Z,-1.19
2022-12-19T21:03:27.808Z,-1.09
2022-12-19T21:05:53.914Z,-1.07
2022-12-19T21:08:21.911Z,-1.00
2022-12-19T21:10:49.180Z,-1.21
2022-12-19T21:13:16.576Z,-1.08
2022-12-19T21:15:44.929Z,-1.09
2022-12-19T21:18:12.351Z,-0.97
2022-12-19T21:20:39.723Z,-0.94
2022-12-19T21:23:07.131Z,-0.91
2022-12-19T21:25:34.423Z,-0.96
2022-12-19T21:28:01.774Z,-1.03
2022-12-19T21:30:29.275Z,-1.00
2022-12-19T21:32:56.575Z,-1.21
2022-12-19T21:35:23.883Z,-1.24
2022-12-19T21:37:52.119Z,-1.12
2022-12-19T21:40:19.557Z,-1.12
2022-12-19T21:42:46.961Z,-1.14
2022-12-19T21:45:14.355Z,-1.09
2022-12-19T21:47:42.255Z,-1.18
2022-12-19T21:50:10.919Z,-1.15
2022-12-19T21:52:38.362Z,-1.08
2022-12-19T21:55:06.500Z,-1.17
2022-12-19T21:57:37.677Z,-1.03
2022-12-19T22:00:06.149Z,-0.97
2022-12-19T22:02:33.514Z,-0.98
2022-12-19T22:05:01.001Z,-1.04
2022-12-19T22:07:28.246Z,-0.93
2022-12-19T22:09:55.607Z,-0.98
2022-12-19T22:12:23.203Z,-1.12
2022-12-19T22:14:53.062Z,-1.04
2022-12-19T22:17:20.385Z,-0.98
2022-12-19T22:19:47.759Z,-1.04
2022-12-19T22:22:15.034Z,-1.07
2022-12-19T22:24:42.310Z,-1.14
2022-12-19T22:27:09.752Z,-1.12
2022-12-19T22:29:37.521Z,-1.19
2022-12-19T22:32:05.266Z,-1.17
2022-12-19T22:34:32.852Z,-1.12
2022-12-19T22:37:00.193Z,-1.00
2022-12-19T22:39:27.696Z,-1.17
2022-12-19T22:41:55.225Z,-1.12
2022-12-19T22:44:23.514Z,-1.15
2022-12-19T22:46:50.970Z,-1.09
2022-12-19T22:49:18.423Z,-1.14
2022-12-19T22:51:45.711Z,-1.19
2022-12-19T22:54:13.143Z,-1.11
2022-12-19T22:56:40.559Z,-1.04
2022-12-19T22:59:08.228Z,-1.05
2022-12-19T23:01:37.401Z,-0.93
2022-12-19T23:04:05.600Z,-0.79
2022-12-19T23:06:34.576Z,-0.86
2022-12-19T23:09:02.018Z,-0.90
2022-12-19T23:11:32.678Z,-1.00
2022-12-19T23:14:01.134Z,-0.96
2022-12-19T23:16:28.448Z,-0.87
2022-12-19T23:18:55.923Z,-0.91
2022-12-19T23:21:23.948Z,-0.90
2022-12-19T23:23:52.335Z,-0.90
2022-12-19T23:26:21.532Z,-0.81
2022-12-19T23:28:54.507Z,-0.87
2022-12-19T23:31:21.960Z,-0.76
2022-12-19T23:33:49.301Z,-0.77
2022-12-19T23:36:27.440Z,-0.86
2022-12-19T23:39:04.113Z,-1.07
2022-12-19T23:41:31.478Z,-0.87
2022-12-19T23:43:58.878Z,-0.94
2022-12-19T23:46:26.444Z,-0.93
2022-12-19T23:48:53.900Z,-0.97
2022-12-19T23:51:23.113Z,-1.01
2022-12-19T23:53:50.503Z,-0.91
2022-12-19T23:56:25.492Z,-0.98
2022-12-19T23:58:52.862Z,-1.05
